sensor_id;sensor_type;location;lat;lon;timestamp;P1;durP1;ratioP1;P2;durP2;ratioP2
26588;SDS011;14235;48.532;8.722;2024-02-04T00:02:06;0.85;;;0.68;;
26588;SDS011;14235;48.532;8.722;2024-02-04T00:04:34;0.40;;;0.40;;
26588;SDS011;14235;48.532;8.722;2024-02-04T00:07:00;0.30;;;0.30;;
26588;SDS011;14235;48.532;8.722;2024-02-04T00:09:27;1.00;;;0.63;;
26588;SDS011;14235;48.532;8.722;2024-02-04T00:11:54;0.50;;;0.50;;
26588;SDS011;14235;48.532;8.722;2024-02-04T00:14:20;0.65;;;0.65;;
26588;SDS011;14235;48.532;8.722;2024-02-04T00:16:45;0.40;;;0.40;;
26588;SDS011;14235;48.532;8.722;2024-02-04T00:19:11;0.60;;;0.60;;
26588;SDS011;14235;48.532;8.722;2024-02-04T00:21:37;0.40;;;0.40;;
26588;SDS011;14235;48.532;8.722;2024-02-04T00:24:03;0.85;;;0.40;;
26588;SDS011;14235;48.532;8.722;2024-02-04T00:26:29;0.20;;;0.20;;
26588;SDS011;14235;48.532;8.722;2024-02-04T00:28:55;0.50;;;0.50;;
26588;SDS011;14235;48.532;8.722;2024-02-04T00:31:21;0.50;;;0.50;;
26588;SDS011;14235;48.532;8.722;2024-02-04T00:33:47;0.40;;;0.40;;
26588;SDS011;14235;48.532;8.722;2024-02-04T00:36:13;0.28;;;0.28;;
26588;SDS011;14235;48.532;8.722;2024-02-04T00:38:39;0.38;;;0.38;;
26588;SDS011;14235;48.532;8.722;2024-02-04T00:41:05;2.65;;;1.95;;
26588;SDS011;14235;48.532;8.722;2024-02-04T00:43:31;7.68;;;4.75;;
26588;SDS011;14235;48.532;8.722;2024-02-04T00:45:57;7.07;;;4.68;;
26588;SDS011;14235;48.532;8.722;2024-02-04T00:48:25;0.60;;;0.60;;
26588;SDS011;14235;48.532;8.722;2024-02-04T00:50:51;1.00;;;1.00;;
26588;SDS011;14235;48.532;8.722;2024-02-04T00:53:17;0.60;;;0.60;;
26588;SDS011;14235;48.532;8.722;2024-02-04T00:55:43;0.60;;;0.60;;
26588;SDS011;14235;48.532;8.722;2024-02-04T00:58:09;0.68;;;0.68;;
26588;SDS011;14235;48.532;8.722;2024-02-04T01:00:35;0.60;;;0.60;;
26588;SDS011;14235;48.532;8.722;2024-02-04T01:03:01;0.50;;;0.50;;
26588;SDS011;14235;48.532;8.722;2024-02-04T01:05:27;0.80;;;0.80;;
26588;SDS011;14235;48.532;8.722;2024-02-04T01:07:53;0.70;;;0.70;;
26588;SDS011;14235;48.532;8.722;2024-02-04T01:10:22;0.93;;;0.73;;
26588;SDS011;14235;48.532;8.722;2024-02-04T01:12:48;0.68;;;0.68;;
26588;SDS011;14235;48.532;8.722;2024-02-04T01:15:14;0.82;;;0.82;;
26588;SDS011;14235;48.532;8.722;2024-02-04T01:17:40;0.60;;;0.60;;
26588;SDS011;14235;48.532;8.722;2024-02-04T01:20:06;1.00;;;0.50;;
26588;SDS011;14235;48.532;8.722;2024-02-04T01:22:32;0.50;;;0.50;;
26588;SDS011;14235;48.532;8.722;2024-02-04T01:24:58;0.77;;;0.70;;
26588;SDS011;14235;48.532;8.722;2024-02-04T01:27:24;0.45;;;0.40;;
26588;SDS011;14235;48.532;8.722;2024-02-04T01:29:50;0.70;;;0.70;;
26588;SDS011;14235;48.532;8.722;2024-02-04T01:32:16;0.77;;;0.68;;
26588;SDS011;14235;48.532;8.722;2024-02-04T01:34:42;0.40;;;0.40;;
26588;SDS011;14235;48.532;8.722;2024-02-04T01:37:08;0.80;;;0.80;;
26588;SDS011;14235;48.532;8.722;2024-02-04T01:39:34;0.65;;;0.63;;
26588;SDS011;14235;48.532;8.722;2024-02-04T01:41:59;0.75;;;0.75;;
26588;SDS011;14235;48.532;8.722;2024-02-04T01:44:26;0.70;;;0.70;;
26588;SDS011;14235;48.532;8.722;2024-02-04T01:46:52;0.70;;;0.70;;
26588;SDS011;14235;48.532;8.722;2024-02-04T01:49:19;0.80;;;0.80;;
26588;SDS011;14235;48.532;8.722;2024-02-04T01:51:45;0.68;;;0.68;;
26588;SDS011;14235;48.532;8.722;2024-02-04T01:54:11;0.90;;;0.90;;
26588;SDS011;14235;48.532;8.722;2024-02-04T01:56:38;0.60;;;0.60;;
26588;SDS011;14235;48.532;8.722;2024-02-04T01:59:04;0.63;;;0.63;;
26588;SDS011;14235;48.532;8.722;2024-02-04T02:01:30;0.50;;;0.50;;
26588;SDS011;14235;48.532;8.722;2024-02-04T02:03:56;0.70;;;0.70;;
26588;SDS011;14235;48.532;8.722;2024-02-04T02:06:23;0.80;;;0.80;;
26588;SDS011;14235;48.532;8.722;2024-02-04T02:08:50;0.70;;;0.70;;
26588;SDS011;14235;48.532;8.722;2024-02-04T02:11:27;1.45;;;0.75;;
26588;SDS011;14235;48.532;8.722;2024-02-04T02:14:01;0.75;;;0.75;;
26588;SDS011;14235;48.532;8.722;2024-02-04T02:16:29;0.70;;;0.70;;
26588;SDS011;14235;48.532;8.722;2024-02-04T02:18:58;0.90;;;0.90;;
26588;SDS011;14235;48.532;8.722;2024-02-04T02:21:47;0.70;;;0.70;;
26588;SDS011;14235;48.532;8.722;2024-02-04T02:26:49;0.95;;;0.70;;
26588;SDS011;14235;48.532;8.722;2024-02-04T02:29:15;0.57;;;0.57;;
26588;SDS011;14235;48.532;8.722;2024-02-04T02:31:41;0.90;;;0.90;;
26588;SDS011;14235;48.532;8.722;2024-02-04T02:34:08;0.70;;;0.70;;
26588;SDS011;14235;48.532;8.722;2024-02-04T02:36:36;0.43;;;0.43;;
26588;SDS011;14235;48.532;8.722;2024-02-04T02:39:08;0.52;;;0.52;;
26588;SDS011;14235;48.532;8.722;2024-02-04T02:41:36;1.13;;;0.40;;
26588;SDS011;14235;48.532;8.722;2024-02-04T02:44:03;0.40;;;0.40;;
26588;SDS011;14235;48.532;8.722;2024-02-04T02:46:31;0.68;;;0.68;;
26588;SDS011;14235;48.532;8.722;2024-02-04T02:48:57;0.63;;;0.63;;
26588;SDS011;14235;48.532;8.722;2024-02-04T02:51:23;0.68;;;0.68;;
26588;SDS011;14235;48.532;8.722;2024-02-04T02:53:49;0.50;;;0.50;;
26588;SDS011;14235;48.532;8.722;2024-02-04T02:56:15;0.47;;;0.30;;
26588;SDS011;14235;48.532;8.722;2024-02-04T02:58:41;0.50;;;0.50;;
26588;SDS011;14235;48.532;8.722;2024-02-04T03:01:07;0.60;;;0.60;;
26588;SDS011;14235;48.532;8.722;2024-02-04T03:03:33;0.65;;;0.65;;
26588;SDS011;14235;48.532;8.722;2024-02-04T03:05:59;0.65;;;0.65;;
26588;SDS011;14235;48.532;8.722;2024-02-04T03:08:25;0.60;;;0.60;;
26588;SDS011;14235;48.532;8.722;2024-02-04T03:10:51;1.02;;;0.68;;
26588;SDS011;14235;48.532;8.722;2024-02-04T03:13:17;0.60;;;0.60;;
26588;SDS011;14235;48.532;8.722;2024-02-04T03:15:43;0.40;;;0.40;;
26588;SDS011;14235;48.532;8.722;2024-02-04T03:18:10;0.50;;;0.50;;
26588;SDS011;14235;48.532;8.722;2024-02-04T03:20:36;0.35;;;0.35;;
26588;SDS011;14235;48.532;8.722;2024-02-04T03:23:02;0.38;;;0.38;;
26588;SDS011;14235;48.532;8.722;2024-02-04T03:25:28;0.55;;;0.55;;
26588;SDS011;14235;48.532;8.722;2024-02-04T03:27:54;0.60;;;0.60;;
26588;SDS011;14235;48.532;8.722;2024-02-04T03:30:20;0.50;;;0.50;;
26588;SDS011;14235;48.532;8.722;2024-02-04T03:32:46;0.40;;;0.40;;
26588;SDS011;14235;48.532;8.722;2024-02-04T03:35:12;0.20;;;0.20;;
26588;SDS011;14235;48.532;8.722;2024-02-04T03:37:38;1.23;;;0.43;;
26588;SDS011;14235;48.532;8.722;2024-02-04T03:40:05;0.40;;;0.40;;
26588;SDS011;14235;48.532;8.722;2024-02-04T03:42:31;0.30;;;0.30;;
26588;SDS011;14235;48.532;8.722;2024-02-04T03:44:57;0.20;;;0.20;;
26588;SDS011;14235;48.532;8.722;2024-02-04T03:47:23;0.47;;;0.47;;
26588;SDS011;14235;48.532;8.722;2024-02-04T03:49:49;0.60;;;0.60;;
26588;SDS011;14235;48.532;8.722;2024-02-04T03:52:14;0.32;;;0.30;;
26588;SDS011;14235;48.532;8.722;2024-02-04T03:54:40;0.40;;;0.40;;
26588;SDS011;14235;48.532;8.722;2024-02-04T03:57:06;0.20;;;0.20;;
26588;SDS011;14235;48.532;8.722;2024-02-04T03:59:32;0.20;;;0.20;;
26588;SDS011;14235;48.532;8.722;2024-02-04T04:01:58;0.70;;;0.60;;
26588;SDS011;14235;48.532;8.722;2024-02-04T04:04:24;0.25;;;0.25;;
26588;SDS011;14235;48.532;8.722;2024-02-04T04:06:51;0.30;;;0.30;;
26588;SDS011;14235;48.532;8.722;2024-02-04T04:09:17;0.40;;;0.40;;
26588;SDS011;14235;48.532;8.722;2024-02-04T04:11:43;0.30;;;0.30;;
26588;SDS011;14235;48.532;8.722;2024-02-04T04:14:09;0.88;;;0.68;;
26588;SDS011;14235;48.532;8.722;2024-02-04T04:16:35;0.50;;;0.50;;
26588;SDS011;14235;48.532;8.722;2024-02-04T04:19:01;0.40;;;0.40;;
26588;SDS011;14235;48.532;8.722;2024-02-04T04:21:27;0.20;;;0.20;;
26588;SDS011;14235;48.532;8.722;2024-02-04T04:23:53;0.40;;;0.40;;
26588;SDS011;14235;48.532;8.722;2024-02-04T04:26:19;0.28;;;0.28;;
26588;SDS011;14235;48.532;8.722;2024-02-04T04:28:45;0.32;;;0.32;;
26588;SDS011;14235;48.532;8.722;2024-02-04T04:31:11;0.25;;;0.25;;
26588;SDS011;14235;48.532;8.722;2024-02-04T04:33:37;0.40;;;0.40;;
26588;SDS011;14235;48.532;8.722;2024-02-04T04:36:03;0.30;;;0.30;;
26588;SDS011;14235;48.532;8.722;2024-02-04T04:38:29;0.50;;;0.50;;
26588;SDS011;14235;48.532;8.722;2024-02-04T04:40:55;0.20;;;0.20;;
26588;SDS011;14235;48.532;8.722;2024-02-04T04:43:21;0.15;;;0.15;;
26588;SDS011;14235;48.532;8.722;2024-02-04T04:45:47;0.10;;;0.10;;
26588;SDS011;14235;48.532;8.722;2024-02-04T04:48:13;0.45;;;0.15;;
26588;SDS011;14235;48.532;8.722;2024-02-04T04:50:39;0.22;;;0.22;;
26588;SDS011;14235;48.532;8.722;2024-02-04T04:53:05;0.20;;;0.20;;
26588;SDS011;14235;48.532;8.722;2024-02-04T04:55:31;0.20;;;0.20;;
26588;SDS011;14235;48.532;8.722;2024-02-04T04:57:57;0.10;;;0.10;;
26588;SDS011;14235;48.532;8.722;2024-02-04T05:00:23;0.25;;;0.25;;
26588;SDS011;14235;48.532;8.722;2024-02-04T05:02:49;0.88;;;0.20;;
26588;SDS011;14235;48.532;8.722;2024-02-04T05:05:15;0.38;;;0.38;;
26588;SDS011;14235;48.532;8.722;2024-02-04T05:07:41;0.47;;;0.20;;
26588;SDS011;14235;48.532;8.722;2024-02-04T05:10:07;0.10;;;0.10;;
26588;SDS011;14235;48.532;8.722;2024-02-04T05:12:34;0.20;;;0.20;;
26588;SDS011;14235;48.532;8.722;2024-02-04T05:15:00;0.40;;;0.40;;
26588;SDS011;14235;48.532;8.722;2024-02-04T05:17:27;0.40;;;0.40;;
26588;SDS011;14235;48.532;8.722;2024-02-04T05:19:53;0.60;;;0.60;;
26588;SDS011;14235;48.532;8.722;2024-02-04T05:22:19;0.28;;;0.28;;
26588;SDS011;14235;48.532;8.722;2024-02-04T05:24:45;0.77;;;0.30;;
26588;SDS011;14235;48.532;8.722;2024-02-04T05:27:11;0.55;;;0.20;;
26588;SDS011;14235;48.532;8.722;2024-02-04T05:29:37;0.13;;;0.13;;
26588;SDS011;14235;48.532;8.722;2024-02-04T05:32:03;0.25;;;0.25;;
26588;SDS011;14235;48.532;8.722;2024-02-04T05:34:29;0.30;;;0.30;;
26588;SDS011;14235;48.532;8.722;2024-02-04T05:36:56;0.40;;;0.38;;
26588;SDS011;14235;48.532;8.722;2024-02-04T05:39:22;0.20;;;0.20;;
26588;SDS011;14235;48.532;8.722;2024-02-04T05:41:49;0.45;;;0.45;;
26588;SDS011;14235;48.532;8.722;2024-02-04T05:44:15;0.30;;;0.30;;
26588;SDS011;14235;48.532;8.722;2024-02-04T05:46:41;0.43;;;0.43;;
26588;SDS011;14235;48.532;8.722;2024-02-04T05:49:07;0.57;;;0.40;;
26588;SDS011;14235;48.532;8.722;2024-02-04T05:51:37;0.30;;;0.30;;
26588;SDS011;14235;48.532;8.722;2024-02-04T05:54:03;0.40;;;0.40;;
26588;SDS011;14235;48.532;8.722;2024-02-04T05:56:29;0.50;;;0.40;;
26588;SDS011;14235;48.532;8.722;2024-02-04T05:58:55;0.20;;;0.20;;
26588;SDS011;14235;48.532;8.722;2024-02-04T06:01:21;0.73;;;0.30;;
26588;SDS011;14235;48.532;8.722;2024-02-04T06:03:47;0.30;;;0.30;;
26588;SDS011;14235;48.532;8.722;2024-02-04T06:06:16;0.50;;;0.50;;
26588;SDS011;14235;48.532;8.722;2024-02-04T06:08:44;0.20;;;0.20;;
26588;SDS011;14235;48.532;8.722;2024-02-04T06:11:10;0.25;;;0.25;;
26588;SDS011;14235;48.532;8.722;2024-02-04T06:13:37;0.55;;;0.55;;
26588;SDS011;14235;48.532;8.722;2024-02-04T06:16:03;0.20;;;0.20;;
26588;SDS011;14235;48.532;8.722;2024-02-04T06:18:30;0.55;;;0.55;;
26588;SDS011;14235;48.532;8.722;2024-02-04T06:20:55;0.50;;;0.50;;
26588;SDS011;14235;48.532;8.722;2024-02-04T06:23:21;0.60;;;0.60;;
26588;SDS011;14235;48.532;8.722;2024-02-04T06:25:47;0.50;;;0.50;;
26588;SDS011;14235;48.532;8.722;2024-02-04T06:28:13;0.20;;;0.20;;
26588;SDS011;14235;48.532;8.722;2024-02-04T06:30:39;0.20;;;0.20;;
26588;SDS011;14235;48.532;8.722;2024-02-04T06:33:05;0.65;;;0.43;;
26588;SDS011;14235;48.532;8.722;2024-02-04T06:35:31;0.40;;;0.40;;
26588;SDS011;14235;48.532;8.722;2024-02-04T06:37:58;0.30;;;0.30;;
26588;SDS011;14235;48.532;8.722;2024-02-04T06:40:24;0.40;;;0.40;;
26588;SDS011;14235;48.532;8.722;2024-02-04T06:42:50;1.15;;;1.10;;
26588;SDS011;14235;48.532;8.722;2024-02-04T06:45:16;0.43;;;0.20;;
26588;SDS011;14235;48.532;8.722;2024-02-04T06:47:45;0.43;;;0.43;;
26588;SDS011;14235;48.532;8.722;2024-02-04T06:50:11;0.20;;;0.20;;
26588;SDS011;14235;48.532;8.722;2024-02-04T06:52:45;0.20;;;0.20;;
26588;SDS011;14235;48.532;8.722;2024-02-04T06:55:12;0.55;;;0.25;;
26588;SDS011;14235;48.532;8.722;2024-02-04T06:57:38;0.38;;;0.38;;
26588;SDS011;14235;48.532;8.722;2024-02-04T07:00:05;0.30;;;0.30;;
26588;SDS011;14235;48.532;8.722;2024-02-04T07:02:33;0.22;;;0.22;;
26588;SDS011;14235;48.532;8.722;2024-02-04T07:04:59;0.60;;;0.60;;
26588;SDS011;14235;48.532;8.722;2024-02-04T07:07:25;1.65;;;1.55;;
26588;SDS011;14235;48.532;8.722;2024-02-04T07:09:51;0.82;;;0.68;;
26588;SDS011;14235;48.532;8.722;2024-02-04T07:12:16;0.10;;;0.10;;
26588;SDS011;14235;48.532;8.722;2024-02-04T07:14:42;1.00;;;1.00;;
26588;SDS011;14235;48.532;8.722;2024-02-04T07:17:08;0.50;;;0.50;;
26588;SDS011;14235;48.532;8.722;2024-02-04T07:19:36;0.80;;;0.80;;
26588;SDS011;14235;48.532;8.722;2024-02-04T07:22:02;0.47;;;0.30;;
26588;SDS011;14235;48.532;8.722;2024-02-04T07:24:29;0.40;;;0.40;;
26588;SDS011;14235;48.532;8.722;2024-02-04T07:26:55;0.60;;;0.60;;
26588;SDS011;14235;48.532;8.722;2024-02-04T07:29:21;0.68;;;0.68;;
26588;SDS011;14235;48.532;8.722;2024-02-04T07:31:47;0.52;;;0.52;;
26588;SDS011;14235;48.532;8.722;2024-02-04T07:34:13;0.88;;;0.88;;
26588;SDS011;14235;48.532;8.722;2024-02-04T07:36:39;0.98;;;0.98;;
26588;SDS011;14235;48.532;8.722;2024-02-04T07:39:05;0.55;;;0.55;;
26588;SDS011;14235;48.532;8.722;2024-02-04T07:41:31;0.32;;;0.32;;
26588;SDS011;14235;48.532;8.722;2024-02-04T07:43:57;0.30;;;0.30;;
26588;SDS011;14235;48.532;8.722;2024-02-04T07:46:23;0.30;;;0.30;;
26588;SDS011;14235;48.532;8.722;2024-02-04T07:48:49;0.73;;;0.40;;
26588;SDS011;14235;48.532;8.722;2024-02-04T07:51:15;0.52;;;0.50;;
26588;SDS011;14235;48.532;8.722;2024-02-04T07:53:41;0.30;;;0.30;;
26588;SDS011;14235;48.532;8.722;2024-02-04T07:56:07;0.65;;;0.50;;
26588;SDS011;14235;48.532;8.722;2024-02-04T07:58:33;0.50;;;0.50;;
26588;SDS011;14235;48.532;8.722;2024-02-04T08:00:59;2.00;;;0.55;;
26588;SDS011;14235;48.532;8.722;2024-02-04T08:03:25;0.30;;;0.30;;
26588;SDS011;14235;48.532;8.722;2024-02-04T08:05:51;0.52;;;0.50;;
26588;SDS011;14235;48.532;8.722;2024-02-04T08:08:17;0.45;;;0.45;;
26588;SDS011;14235;48.532;8.722;2024-02-04T08:10:44;0.30;;;0.30;;
26588;SDS011;14235;48.532;8.722;2024-02-04T08:13:10;0.45;;;0.40;;
26588;SDS011;14235;48.532;8.722;2024-02-04T08:15:36;0.40;;;0.40;;
26588;SDS011;14235;48.532;8.722;2024-02-04T08:18:02;0.68;;;0.40;;
26588;SDS011;14235;48.532;8.722;2024-02-04T08:20:28;0.50;;;0.40;;
26588;SDS011;14235;48.532;8.722;2024-02-04T08:22:54;0.50;;;0.50;;
26588;SDS011;14235;48.532;8.722;2024-02-04T08:25:20;0.30;;;0.30;;
26588;SDS011;14235;48.532;8.722;2024-02-04T08:27:46;0.20;;;0.20;;
26588;SDS011;14235;48.532;8.722;2024-02-04T08:30:12;0.30;;;0.30;;
26588;SDS011;14235;48.532;8.722;2024-02-04T08:32:38;0.45;;;0.45;;
26588;SDS011;14235;48.532;8.722;2024-02-04T08:35:04;0.28;;;0.17;;
26588;SDS011;14235;48.532;8.722;2024-02-04T08:37:31;0.20;;;0.20;;
26588;SDS011;14235;48.532;8.722;2024-02-04T08:40:00;0.17;;;0.17;;
26588;SDS011;14235;48.532;8.722;2024-02-04T08:42:26;0.40;;;0.30;;
26588;SDS011;14235;48.532;8.722;2024-02-04T08:44:52;1.13;;;0.30;;
26588;SDS011;14235;48.532;8.722;2024-02-04T08:47:18;0.40;;;0.40;;
26588;SDS011;14235;48.532;8.722;2024-02-04T08:49:44;1.27;;;0.30;;
26588;SDS011;14235;48.532;8.722;2024-02-04T08:52:10;0.85;;;0.32;;
26588;SDS011;14235;48.532;8.722;2024-02-04T08:54:36;0.50;;;0.50;;
26588;SDS011;14235;48.532;8.722;2024-02-04T08:57:02;0.35;;;0.35;;
26588;SDS011;14235;48.532;8.722;2024-02-04T08:59:28;0.28;;;0.28;;
26588;SDS011;14235;48.532;8.722;2024-02-04T09:01:54;0.20;;;0.15;;
26588;SDS011;14235;48.532;8.722;2024-02-04T09:04:20;0.38;;;0.38;;
26588;SDS011;14235;48.532;8.722;2024-02-04T09:06:46;0.30;;;0.30;;
26588;SDS011;14235;48.532;8.722;2024-02-04T09:09:12;0.88;;;0.32;;
26588;SDS011;14235;48.532;8.722;2024-02-04T09:11:38;0.25;;;0.25;;
26588;SDS011;14235;48.532;8.722;2024-02-04T09:14:04;0.35;;;0.35;;
26588;SDS011;14235;48.532;8.722;2024-02-04T09:16:30;0.73;;;0.30;;
26588;SDS011;14235;48.532;8.722;2024-02-04T09:18:56;1.55;;;0.17;;
26588;SDS011;14235;48.532;8.722;2024-02-04T09:21:21;0.00;;;0.00;;
26588;SDS011;14235;48.532;8.722;2024-02-04T09:23:47;0.22;;;0.20;;
26588;SDS011;14235;48.532;8.722;2024-02-04T09:26:13;0.30;;;0.30;;
26588;SDS011;14235;48.532;8.722;2024-02-04T09:28:40;0.10;;;0.10;;
26588;SDS011;14235;48.532;8.722;2024-02-04T09:31:08;1.48;;;0.10;;
26588;SDS011;14235;48.532;8.722;2024-02-04T09:33:34;0.28;;;0.28;;
26588;SDS011;14235;48.532;8.722;2024-02-04T09:36:03;0.17;;;0.17;;
26588;SDS011;14235;48.532;8.722;2024-02-04T09:38:29;0.17;;;0.17;;
26588;SDS011;14235;48.532;8.722;2024-02-04T09:40:55;0.32;;;0.32;;
26588;SDS011;14235;48.532;8.722;2024-02-04T09:43:21;0.52;;;0.30;;
26588;SDS011;14235;48.532;8.722;2024-02-04T09:45:47;0.13;;;0.13;;
26588;SDS011;14235;48.532;8.722;2024-02-04T09:48:14;0.10;;;0.10;;
26588;SDS011;14235;48.532;8.722;2024-02-04T09:50:42;0.65;;;0.10;;
26588;SDS011;14235;48.532;8.722;2024-02-04T09:53:08;0.13;;;0.13;;
26588;SDS011;14235;48.532;8.722;2024-02-04T09:55:35;0.10;;;0.10;;
26588;SDS011;14235;48.532;8.722;2024-02-04T09:58:03;0.20;;;0.20;;
26588;SDS011;14235;48.532;8.722;2024-02-04T10:00:29;0.57;;;0.22;;
26588;SDS011;14235;48.532;8.722;2024-02-04T10:02:56;0.20;;;0.20;;
26588;SDS011;14235;48.532;8.722;2024-02-04T10:05:22;0.25;;;0.25;;
26588;SDS011;14235;48.532;8.722;2024-02-04T10:07:49;0.90;;;0.20;;
26588;SDS011;14235;48.532;8.722;2024-02-04T10:10:15;0.30;;;0.30;;
26588;SDS011;14235;48.532;8.722;2024-02-04T10:12:41;0.20;;;0.20;;
26588;SDS011;14235;48.532;8.722;2024-02-04T10:15:09;0.20;;;0.20;;
26588;SDS011;14235;48.532;8.722;2024-02-04T10:17:35;0.20;;;0.20;;
26588;SDS011;14235;48.532;8.722;2024-02-04T10:20:01;0.40;;;0.30;;
26588;SDS011;14235;48.532;8.722;2024-02-04T10:22:27;0.10;;;0.10;;
26588;SDS011;14235;48.532;8.722;2024-02-04T10:24:54;0.40;;;0.20;;
26588;SDS011;14235;48.532;8.722;2024-02-04T10:27:20;0.20;;;0.20;;
26588;SDS011;14235;48.532;8.722;2024-02-04T10:29:46;0.10;;;0.10;;
26588;SDS011;14235;48.532;8.722;2024-02-04T10:32:12;0.10;;;0.10;;
26588;SDS011;14235;48.532;8.722;2024-02-04T10:34:38;1.25;;;0.28;;
26588;SDS011;14235;48.532;8.722;2024-02-04T10:37:04;0.35;;;0.13;;
26588;SDS011;14235;48.532;8.722;2024-02-04T10:39:30;0.10;;;0.10;;
26588;SDS011;14235;48.532;8.722;2024-02-04T10:41:59;0.30;;;0.30;;
26588;SDS011;14235;48.532;8.722;2024-02-04T10:44:28;1.27;;;0.17;;
26588;SDS011;14235;48.532;8.722;2024-02-04T10:46:54;0.35;;;0.20;;
26588;SDS011;14235;48.532;8.722;2024-02-04T10:49:20;0.30;;;0.30;;
26588;SDS011;14235;48.532;8.722;2024-02-04T10:51:48;0.13;;;0.13;;
26588;SDS011;14235;48.532;8.722;2024-02-04T10:54:16;0.30;;;0.30;;
26588;SDS011;14235;48.532;8.722;2024-02-04T10:56:43;0.00;;;0.00;;
26588;SDS011;14235;48.532;8.722;2024-02-04T10:59:10;0.32;;;0.30;;
26588;SDS011;14235;48.532;8.722;2024-02-04T11:01:39;0.10;;;0.10;;
26588;SDS011;14235;48.532;8.722;2024-02-04T11:04:06;0.20;;;0.20;;
26588;SDS011;14235;48.532;8.722;2024-02-04T11:06:36;0.10;;;0.10;;
26588;SDS011;14235;48.532;8.722;2024-02-04T11:09:03;0.13;;;0.13;;
26588;SDS011;14235;48.532;8.722;2024-02-04T11:11:30;0.70;;;0.10;;
26588;SDS011;14235;48.532;8.722;2024-02-04T11:13:59;0.20;;;0.10;;
26588;SDS011;14235;48.532;8.722;2024-02-04T11:19:19;0.03;;;0.03;;
26588;SDS011;14235;48.532;8.722;2024-02-04T11:24:19;0.47;;;0.10;;
26588;SDS011;14235;48.532;8.722;2024-02-04T11:26:46;0.15;;;0.10;;
26588;SDS011;14235;48.532;8.722;2024-02-04T11:29:13;0.10;;;0.10;;
26588;SDS011;14235;48.532;8.722;2024-02-04T11:31:39;0.17;;;0.17;;
26588;SDS011;14235;48.532;8.722;2024-02-04T11:34:05;0.40;;;0.10;;
26588;SDS011;14235;48.532;8.722;2024-02-04T11:36:37;0.10;;;0.10;;
26588;SDS011;14235;48.532;8.722;2024-02-04T11:39:10;0.32;;;0.20;;
26588;SDS011;14235;48.532;8.722;2024-02-04T11:41:44;0.10;;;0.10;;
26588;SDS011;14235;48.532;8.722;2024-02-04T11:44:10;0.10;;;0.10;;
26588;SDS011;14235;48.532;8.722;2024-02-04T11:46:36;0.38;;;0.20;;
26588;SDS011;14235;48.532;8.722;2024-02-04T11:49:02;1.33;;;0.30;;
26588;SDS011;14235;48.532;8.722;2024-02-04T11:51:29;0.13;;;0.13;;
26588;SDS011;14235;48.532;8.722;2024-02-04T11:53:55;0.20;;;0.20;;
26588;SDS011;14235;48.532;8.722;2024-02-04T11:56:23;0.80;;;0.20;;
26588;SDS011;14235;48.532;8.722;2024-02-04T11:58:50;0.40;;;0.30;;
26588;SDS011;14235;48.532;8.722;2024-02-04T12:01:16;0.40;;;0.30;;
26588;SDS011;14235;48.532;8.722;2024-02-04T12:03:42;0.30;;;0.10;;
26588;SDS011;14235;48.532;8.722;2024-02-04T12:06:08;0.20;;;0.20;;
26588;SDS011;14235;48.532;8.722;2024-02-04T12:08:35;0.20;;;0.20;;
26588;SDS011;14235;48.532;8.722;2024-02-04T12:11:01;2.58;;;0.38;;
26588;SDS011;14235;48.532;8.722;2024-02-04T12:13:28;0.17;;;0.17;;
26588;SDS011;14235;48.532;8.722;2024-02-04T12:15:54;0.28;;;0.22;;
26588;SDS011;14235;48.532;8.722;2024-02-04T12:18:20;0.10;;;0.10;;
26588;SDS011;14235;48.532;8.722;2024-02-04T12:20:47;0.20;;;0.20;;
26588;SDS011;14235;48.532;8.722;2024-02-04T12:23:16;0.00;;;0.00;;
26588;SDS011;14235;48.532;8.722;2024-02-04T12:25:43;0.30;;;0.30;;
26588;SDS011;14235;48.532;8.722;2024-02-04T12:28:09;0.30;;;0.20;;
26588;SDS011;14235;48.532;8.722;2024-02-04T12:30:35;0.20;;;0.20;;
26588;SDS011;14235;48.532;8.722;2024-02-04T12:33:02;0.88;;;0.15;;
26588;SDS011;14235;48.532;8.722;2024-02-04T12:35:29;1.67;;;0.30;;
26588;SDS011;14235;48.532;8.722;2024-02-04T12:37:56;0.32;;;0.32;;
26588;SDS011;14235;48.532;8.722;2024-02-04T12:40:22;0.75;;;0.20;;
26588;SDS011;14235;48.532;8.722;2024-02-04T12:42:53;0.17;;;0.17;;
26588;SDS011;14235;48.532;8.722;2024-02-04T12:45:19;0.65;;;0.22;;
26588;SDS011;14235;48.532;8.722;2024-02-04T12:47:48;1.58;;;0.20;;
26588;SDS011;14235;48.532;8.722;2024-02-04T12:50:14;0.38;;;0.30;;
26588;SDS011;14235;48.532;8.722;2024-02-04T12:52:41;0.50;;;0.50;;
26588;SDS011;14235;48.532;8.722;2024-02-04T12:55:07;1.17;;;0.30;;
26588;SDS011;14235;48.532;8.722;2024-02-04T12:57:33;0.10;;;0.10;;
26588;SDS011;14235;48.532;8.722;2024-02-04T13:00:05;0.30;;;0.30;;
26588;SDS011;14235;48.532;8.722;2024-02-04T13:02:33;1.55;;;0.20;;
26588;SDS011;14235;48.532;8.722;2024-02-04T13:04:59;0.20;;;0.20;;
26588;SDS011;14235;48.532;8.722;2024-02-04T13:07:25;0.30;;;0.30;;
26588;SDS011;14235;48.532;8.722;2024-02-04T13:09:58;0.20;;;0.20;;
26588;SDS011;14235;48.532;8.722;2024-02-04T13:12:27;0.10;;;0.10;;
26588;SDS011;14235;48.532;8.722;2024-02-04T13:14:53;1.38;;;0.30;;
26588;SDS011;14235;48.532;8.722;2024-02-04T13:17:19;0.20;;;0.20;;
26588;SDS011;14235;48.532;8.722;2024-02-04T13:19:45;0.40;;;0.40;;
26588;SDS011;14235;48.532;8.722;2024-02-04T13:22:11;0.25;;;0.25;;
26588;SDS011;14235;48.532;8.722;2024-02-04T13:24:39;0.65;;;0.45;;
26588;SDS011;14235;48.532;8.722;2024-02-04T13:27:05;0.40;;;0.38;;
26588;SDS011;14235;48.532;8.722;2024-02-04T13:29:34;0.20;;;0.10;;
26588;SDS011;14235;48.532;8.722;2024-02-04T13:32:00;0.40;;;0.20;;
26588;SDS011;14235;48.532;8.722;2024-02-04T13:34:26;0.30;;;0.30;;
26588;SDS011;14235;48.532;8.722;2024-02-04T13:36:52;0.32;;;0.32;;
26588;SDS011;14235;48.532;8.722;2024-02-04T13:39:18;0.25;;;0.25;;
26588;SDS011;14235;48.532;8.722;2024-02-04T13:41:45;1.08;;;0.40;;
26588;SDS011;14235;48.532;8.722;2024-02-04T13:44:11;0.30;;;0.30;;
26588;SDS011;14235;48.532;8.722;2024-02-04T13:46:37;0.57;;;0.30;;
26588;SDS011;14235;48.532;8.722;2024-02-04T13:49:07;1.25;;;0.80;;
26588;SDS011;14235;48.532;8.722;2024-02-04T13:51:33;0.38;;;0.30;;
26588;SDS011;14235;48.532;8.722;2024-02-04T13:54:00;0.63;;;0.63;;
26588;SDS011;14235;48.532;8.722;2024-02-04T13:56:26;0.70;;;0.32;;
26588;SDS011;14235;48.532;8.722;2024-02-04T13:58:54;0.30;;;0.30;;
26588;SDS011;14235;48.532;8.722;2024-02-04T14:01:21;0.30;;;0.30;;
26588;SDS011;14235;48.532;8.722;2024-02-04T14:03:47;0.52;;;0.50;;
26588;SDS011;14235;48.532;8.722;2024-02-04T14:06:15;0.85;;;0.85;;
26588;SDS011;14235;48.532;8.722;2024-02-04T14:08:41;2.20;;;0.57;;
26588;SDS011;14235;48.532;8.722;2024-02-04T14:11:07;0.77;;;0.60;;
26588;SDS011;14235;48.532;8.722;2024-02-04T14:13:33;0.30;;;0.30;;
26588;SDS011;14235;48.532;8.722;2024-02-04T14:15:59;0.60;;;0.60;;
26588;SDS011;14235;48.532;8.722;2024-02-04T14:18:25;0.25;;;0.25;;
26588;SDS011;14235;48.532;8.722;2024-02-04T14:20:51;0.30;;;0.30;;
26588;SDS011;14235;48.532;8.722;2024-02-04T14:23:17;0.50;;;0.50;;
26588;SDS011;14235;48.532;8.722;2024-02-04T14:25:43;0.30;;;0.30;;
26588;SDS011;14235;48.532;8.722;2024-02-04T14:28:10;0.82;;;0.75;;
26588;SDS011;14235;48.532;8.722;2024-02-04T14:30:37;0.55;;;0.55;;
26588;SDS011;14235;48.532;8.722;2024-02-04T14:33:03;0.70;;;0.70;;
26588;SDS011;14235;48.532;8.722;2024-02-04T14:35:29;0.35;;;0.35;;
26588;SDS011;14235;48.532;8.722;2024-02-04T14:37:55;0.40;;;0.40;;
26588;SDS011;14235;48.532;8.722;2024-02-04T14:40:21;0.80;;;0.80;;
26588;SDS011;14235;48.532;8.722;2024-02-04T14:42:47;0.85;;;0.50;;
26588;SDS011;14235;48.532;8.722;2024-02-04T14:45:13;0.40;;;0.40;;
26588;SDS011;14235;48.532;8.722;2024-02-04T14:47:39;0.40;;;0.40;;
26588;SDS011;14235;48.532;8.722;2024-02-04T14:50:05;0.80;;;0.80;;
26588;SDS011;14235;48.532;8.722;2024-02-04T14:52:31;0.40;;;0.40;;